Time;durP1;ratioP1;P1;durP2;ratioP2;P2;SDS_P1;SDS_P2;PMS_P1;PMS_P2;Temp;Humidity;BMP_temperature;BMP_pressure;BME280_temperature;BME280_humidity;BME280_pressure;Samples;Min_cycle;Max_cycle;Signal;HPM_P1;HPM_P2
2023/06/22 00:01:28;;;;;;;19.77;12.65;;;19.20;99.90;;;;;;5044593;28;20057;-71
2023/06/22 00:03:54;;;;;;;15.93;11.95;;;19.20;99.90;;;;;;5044448;28;20087;-71
2023/06/22 00:06:19;;;;;;;17.60;12.70;;;19.30;99.90;;;;;;5044214;28;20048;-72
2023/06/22 00:08:45;;;;;;;17.27;12.80;;;19.20;99.90;;;;;;5042999;28;20036;-70
2023/06/22 00:11:11;;;;;;;17.58;12.38;;;19.10;99.90;;;;;;5042682;28;20029;-70
2023/06/22 00:13:37;;;;;;;18.60;13.27;;;19.10;99.90;;;;;;5044206;28;20048;-70
2023/06/22 00:16:02;;;;;;;16.00;12.68;;;19.00;99.90;;;;;;5042813;28;20179;-71
2023/06/22 00:18:30;;;;;;;17.42;12.65;;;19.00;99.90;;;;;;5043686;28;20494;-70
2023/06/22 00:20:58;;;;;;;14.98;12.02;;;19.00;99.90;;;;;;5044227;28;20117;-72
2023/06/22 00:23:26;;;;;;;15.45;13.00;;;19.00;99.90;;;;;;5026286;28;20030;-71
2023/06/22 00:25:52;;;;;;;24.45;13.23;;;18.90;99.90;;;;;;5044221;28;20061;-69
2023/06/22 00:28:17;;;;;;;17.35;12.68;;;18.80;99.90;;;;;;5044193;28;20075;-71
2023/06/22 00:30:43;;;;;;;21.80;13.10;;;18.90;99.90;;;;;;5022655;28;20526;-69
2023/06/22 00:33:08;;;;;;;17.48;12.52;;;18.80;99.90;;;;;;5023718;28;20026;-69
2023/06/22 00:35:34;;;;;;;16.90;12.10;;;18.80;99.90;;;;;;5024227;28;20034;-69
2023/06/22 00:38:00;;;;;;;18.90;12.45;;;18.80;99.90;;;;;;5024121;28;20030;-72
2023/06/22 00:40:33;;;;;;;17.75;13.20;;;18.80;99.90;;;;;;5023017;28;20026;-72
2023/06/22 00:42:59;;;;;;;18.15;13.60;;;18.80;99.90;;;;;;5022268;28;20029;-73
2023/06/22 00:45:25;;;;;;;18.08;14.27;;;18.80;99.90;;;;;;5023084;28;20030;-69
2023/06/22 00:47:52;;;;;;;19.80;14.43;;;18.70;99.90;;;;;;5023927;28;20458;-70
2023/06/22 00:50:23;;;;;;;23.98;14.80;;;18.80;99.90;;;;;;5024109;28;20033;-70
2023/06/22 00:52:52;;;;;;;18.42;14.70;;;18.70;99.90;;;;;;5022604;28;20049;-70
2023/06/22 00:55:20;;;;;;;20.80;14.50;;;18.70;99.90;;;;;;5023961;28;20049;-70
2023/06/22 00:57:47;;;;;;;20.83;14.65;;;18.60;99.90;;;;;;5024269;28;20109;-71
2023/06/22 01:00:16;;;;;;;22.60;16.60;;;18.60;99.90;;;;;;5024508;28;20040;-70
2023/06/22 01:02:45;;;;;;;22.02;16.40;;;18.60;99.90;;;;;;5027488;28;20092;-69
2023/06/22 01:05:13;;;;;;;23.08;16.60;;;18.60;99.90;;;;;;5026308;28;20390;-70
2023/06/22 01:08:00;;;;;;;23.42;16.45;;;18.60;99.90;;;;;;5027358;28;20022;-70
2023/06/22 01:10:43;;;;;;;23.20;17.23;;;18.50;99.90;;;;;;5026315;28;20034;-71
2023/06/22 01:13:25;;;;;;;22.20;17.10;;;18.60;99.90;;;;;;5027175;28;20034;-71
2023/06/22 01:16:04;;;;;;;25.00;17.95;;;18.50;99.90;;;;;;5026921;28;20098;-70
2023/06/22 01:18:33;;;;;;;25.77;18.02;;;18.50;99.90;;;;;;5026775;28;20037;-71
2023/06/22 01:21:00;;;;;;;26.17;18.50;;;18.50;99.90;;;;;;5026780;28;20455;-72
2023/06/22 01:23:35;;;;;;;26.75;18.30;;;18.50;99.90;;;;;;5014821;28;20029;-71
2023/06/22 01:26:19;;;;;;;24.83;17.95;;;18.50;99.90;;;;;;5025667;28;20041;-73
2023/06/22 01:28:47;;;;;;;24.95;19.02;;;18.50;99.90;;;;;;5026281;28;20045;-73
2023/06/22 01:31:23;;;;;;;26.08;18.50;;;18.50;99.90;;;;;;5024788;28;20054;-70
2023/06/22 01:34:02;;;;;;;26.67;18.48;;;18.50;99.90;;;;;;5007418;28;20104;-70
2023/06/22 01:36:30;;;;;;;27.20;18.45;;;18.40;99.90;;;;;;5007132;28;20030;-73
2023/06/22 01:38:57;;;;;;;26.17;18.77;;;18.40;99.90;;;;;;5007374;28;20057;-70
2023/06/22 01:41:26;;;;;;;29.10;18.73;;;18.40;99.90;;;;;;5007383;28;20491;-71
2023/06/22 01:43:54;;;;;;;25.25;17.92;;;18.30;99.90;;;;;;5007089;28;20022;-70
2023/06/22 01:46:21;;;;;;;26.25;18.50;;;18.40;99.90;;;;;;5007442;28;20026;-70
2023/06/22 01:48:47;;;;;;;27.50;18.88;;;18.30;99.90;;;;;;5005688;28;20034;-70
2023/06/22 01:51:13;;;;;;;30.83;20.17;;;18.30;99.90;;;;;;5006669;28;20096;-70
2023/06/22 01:53:39;;;;;;;29.35;19.10;;;18.30;99.90;;;;;;5007144;28;20033;-72
2023/06/22 01:56:04;;;;;;;29.48;19.55;;;18.20;99.90;;;;;;5009776;28;20109;-70
2023/06/22 01:58:32;;;;;;;28.20;19.88;;;18.20;99.90;;;;;;5026547;28;20042;-72
2023/06/22 02:01:13;;;;;;;28.63;20.58;;;18.20;99.90;;;;;;5026567;28;20089;-70
2023/06/22 02:03:53;;;;;;;27.85;19.60;;;18.20;99.90;;;;;;5026060;28;20025;-70
2023/06/22 02:06:27;;;;;;;26.88;19.23;;;18.10;99.90;;;;;;5026561;28;20391;-69
2023/06/22 02:09:00;;;;;;;26.23;18.70;;;18.10;99.90;;;;;;5026664;28;20033;-72
2023/06/22 02:11:28;;;;;;;30.15;20.40;;;18.00;99.90;;;;;;5024730;28;20030;-70
2023/06/22 02:13:57;;;;;;;28.15;18.98;;;18.00;99.90;;;;;;5024921;28;20033;-70
2023/06/22 02:16:24;;;;;;;28.67;20.70;;;18.00;99.90;;;;;;5025093;28;20034;-70
2023/06/22 02:18:51;;;;;;;27.90;19.00;;;18.00;99.90;;;;;;5024543;28;20479;-71
2023/06/22 02:21:18;;;;;;;31.67;19.88;;;18.00;99.90;;;;;;5024941;28;20564;-71
2023/06/22 02:23:44;;;;;;;28.50;19.48;;;18.00;99.90;;;;;;5024812;28;20479;-70
2023/06/22 02:26:10;;;;;;;30.55;19.35;;;17.90;99.90;;;;;;5018720;28;20033;-71
2023/06/22 02:28:35;;;;;;;25.77;19.65;;;17.90;99.90;;;;;;5024677;28;20033;-71
2023/06/22 02:31:01;;;;;;;27.38;19.17;;;18.00;99.90;;;;;;5033061;28;20116;-71
2023/06/22 02:33:27;;;;;;;27.60;19.35;;;17.90;99.90;;;;;;5032040;28;20026;-71
2023/06/22 02:35:53;;;;;;;26.42;18.67;;;17.90;99.90;;;;;;5026042;28;20061;-71
2023/06/22 02:38:19;;;;;;;30.30;21.30;;;17.90;99.90;;;;;;5024227;28;20131;-70
2023/06/22 02:40:45;;;;;;;28.63;20.33;;;17.90;99.90;;;;;;5024327;28;20030;-71
2023/06/22 02:43:10;;;;;;;30.88;20.10;;;17.80;99.90;;;;;;5034141;28;20026;-69
2023/06/22 02:45:36;;;;;;;34.05;22.30;;;17.80;99.90;;;;;;5045092;28;20422;-72
2023/06/22 02:48:01;;;;;;;31.05;22.08;;;17.80;99.90;;;;;;5045564;28;20093;-71
2023/06/22 02:50:27;;;;;;;32.03;22.27;;;17.70;99.90;;;;;;5043953;28;20143;-71
2023/06/22 02:52:52;;;;;;;33.63;22.60;;;17.70;99.90;;;;;;5045157;28;20497;-69
2023/06/22 02:55:18;;;;;;;32.65;21.48;;;17.80;99.90;;;;;;5043911;28;20029;-71
2023/06/22 02:57:44;;;;;;;33.90;22.27;;;17.70;99.90;;;;;;5043662;28;20022;-69
2023/06/22 03:00:17;;;;;;;33.03;21.48;;;17.60;99.90;;;;;;5043573;28;20061;-70
2023/06/22 03:02:47;;;;;;;32.72;22.40;;;17.70;99.90;;;;;;5045242;28;20025;-71
2023/06/22 03:05:13;;;;;;;34.42;22.73;;;17.70;99.90;;;;;;5045171;28;20140;-71
2023/06/22 03:07:43;;;;;;;32.03;22.52;;;17.70;99.90;;;;;;5044621;28;20032;-69
2023/06/22 03:10:11;;;;;;;33.70;22.17;;;17.70;99.90;;;;;;5045010;28;20077;-70
2023/06/22 03:12:37;;;;;;;35.40;22.48;;;17.60;99.90;;;;;;5044676;28;20068;-70
2023/06/22 03:15:08;;;;;;;30.60;22.02;;;17.60;99.90;;;;;;5045127;28;20025;-69
2023/06/22 03:17:35;;;;;;;34.90;23.35;;;17.60;99.90;;;;;;5043629;28;20025;-70
2023/06/22 03:20:08;;;;;;;33.00;23.00;;;17.50;99.90;;;;;;5044503;28;20090;-69
2023/06/22 03:22:38;;;;;;;36.45;24.08;;;17.60;99.90;;;;;;5038272;28;20041;-70
2023/06/22 03:25:04;;;;;;;34.35;22.35;;;17.50;99.90;;;;;;5024833;28;20049;-71
2023/06/22 03:27:30;;;;;;;37.47;22.20;;;17.50;99.90;;;;;;5023579;28;20046;-70
2023/06/22 03:29:58;;;;;;;32.97;22.20;;;17.50;99.90;;;;;;5036644;28;20021;-69
2023/06/22 03:32:25;;;;;;;31.13;20.52;;;17.50;99.90;;;;;;5024758;28;20073;-70
2023/06/22 03:34:50;;;;;;;30.23;20.88;;;17.60;99.90;;;;;;5023732;28;20034;-70
2023/06/22 03:37:16;;;;;;;33.97;20.60;;;17.50;99.90;;;;;;5023455;28;20057;-70
2023/06/22 03:39:42;;;;;;;35.22;21.17;;;17.60;99.90;;;;;;5023255;28;20188;-71
2023/06/22 03:42:08;;;;;;;33.92;21.75;;;17.60;99.90;;;;;;5024437;28;20089;-71
2023/06/22 03:44:36;;;;;;;31.92;20.48;;;17.60;99.90;;;;;;5023500;28;20026;-71
2023/06/22 03:47:07;;;;;;;32.03;19.92;;;17.60;99.90;;;;;;5024642;28;20045;-70
2023/06/22 03:49:34;;;;;;;31.17;20.50;;;17.60;99.90;;;;;;5023198;28;20058;-71
2023/06/22 03:52:03;;;;;;;30.77;20.58;;;17.60;99.90;;;;;;5021914;28;20096;-71
2023/06/22 03:54:29;;;;;;;29.20;19.60;;;17.60;99.90;;;;;;5022823;28;20029;-71
2023/06/22 03:56:56;;;;;;;29.48;19.67;;;17.60;99.90;;;;;;5024940;28;20106;-70
2023/06/22 03:59:22;;;;;;;30.58;19.05;;;17.60;99.90;;;;;;5023325;28;20060;-70
2023/06/22 04:01:48;;;;;;;29.60;19.00;;;17.60;99.90;;;;;;5022314;28;20469;-70
2023/06/22 04:04:13;;;;;;;26.40;17.95;;;17.70;99.90;;;;;;5024492;28;20689;-71
2023/06/22 04:06:39;;;;;;;28.85;18.63;;;17.70;99.90;;;;;;5021618;28;20034;-72
2023/06/22 04:09:06;;;;;;;25.60;18.05;;;17.80;99.90;;;;;;5013506;28;20030;-69
2023/06/22 04:11:32;;;;;;;28.55;18.38;;;17.80;99.90;;;;;;5010914;28;20128;-70
2023/06/22 04:13:58;;;;;;;30.10;18.45;;;17.80;99.90;;;;;;5013009;28;20034;-70
2023/06/22 04:16:23;;;;;;;29.48;18.42;;;17.80;99.90;;;;;;5018904;28;20065;-72
2023/06/22 04:18:49;;;;;;;26.85;18.35;;;17.80;99.90;;;;;;5019590;28;20043;-71
2023/06/22 04:21:14;;;;;;;28.38;18.05;;;17.90;99.90;;;;;;5022551;28;20057;-69
2023/06/22 04:23:40;;;;;;;26.40;18.00;;;17.90;99.90;;;;;;5019135;28;20026;-70
2023/06/22 04:26:05;;;;;;;29.05;17.90;;;17.90;99.90;;;;;;5020586;28;20030;-70
2023/06/22 04:28:34;;;;;;;28.70;19.27;;;17.90;99.90;;;;;;5021367;28;20061;-71
2023/06/22 04:31:01;;;;;;;29.63;19.02;;;18.00;99.90;;;;;;5032037;28;20041;-71
2023/06/22 04:33:28;;;;;;;31.35;19.73;;;18.00;99.90;;;;;;5043485;28;20017;-71
2023/06/22 04:35:54;;;;;;;30.20;19.42;;;18.00;99.90;;;;;;5044023;28;20081;-73
2023/06/22 04:38:21;;;;;;;25.42;17.38;;;18.10;99.90;;;;;;5029523;28;20038;-71
2023/06/22 04:40:46;;;;;;;26.00;18.00;;;18.20;99.90;;;;;;5047235;28;20021;-70
2023/06/22 04:43:12;;;;;;;28.52;17.02;;;18.10;99.90;;;;;;5028357;28;20464;-71
2023/06/22 04:45:38;;;;;;;23.33;16.40;;;18.10;99.90;;;;;;5029206;28;20021;-71
2023/06/22 04:48:04;;;;;;;22.63;15.15;;;18.10;99.90;;;;;;5047081;28;20053;-71
2023/06/22 04:50:30;;;;;;;26.27;17.30;;;18.10;99.90;;;;;;5046812;28;20032;-71
2023/06/22 04:52:56;;;;;;;24.80;16.30;;;18.20;99.90;;;;;;5047136;28;20029;-70
2023/06/22 04:55:21;;;;;;;21.20;15.77;;;18.20;99.90;;;;;;5029297;28;20029;-71
2023/06/22 04:57:48;;;;;;;22.20;14.52;;;18.20;99.90;;;;;;5028416;28;20026;-70
2023/06/22 05:00:24;;;;;;;24.08;16.88;;;18.30;99.90;;;;;;5041088;28;20030;-70
2023/06/22 05:02:49;;;;;;;23.83;15.77;;;18.30;99.90;;;;;;5046865;28;20029;-70
2023/06/22 05:05:16;;;;;;;23.15;14.55;;;18.40;99.90;;;;;;5046696;28;20022;-70
2023/06/22 05:07:52;;;;;;;22.73;15.43;;;18.40;99.90;;;;;;5045352;28;20025;-69
2023/06/22 05:10:19;;;;;;;21.77;14.18;;;18.40;99.90;;;;;;5046262;28;20849;-70
2023/06/22 05:12:47;;;;;;;20.05;14.70;;;18.40;99.90;;;;;;5047122;28;20084;-70
2023/06/22 05:15:12;;;;;;;25.48;15.35;;;18.50;99.90;;;;;;5029123;28;20064;-70
2023/06/22 05:17:42;;;;;;;27.90;15.93;;;18.50;99.90;;;;;;5045788;28;20037;-70
2023/06/22 05:20:12;;;;;;;24.90;15.88;;;18.50;99.90;;;;;;5045176;28;20029;-71
2023/06/22 05:36:51;;;;;;;24.65;17.45;;;18.80;99.90;;;;;;2814694;28;22270;-73
2023/06/22 05:39:16;;;;;;;22.95;16.58;;;18.90;99.90;;;;;;5045235;28;20045;-72
2023/06/22 05:41:45;;;;;;;28.00;18.70;;;18.90;99.90;;;;;;5040833;28;20073;-70
2023/06/22 05:44:11;;;;;;;23.75;17.30;;;18.90;99.90;;;;;;5039705;28;20493;-72
2023/06/22 05:46:39;;;;;;;27.25;18.70;;;18.90;99.90;;;;;;5026664;28;20025;-70
2023/06/22 05:49:04;;;;;;;28.77;21.75;;;18.90;99.90;;;;;;5027961;28;20470;-70
2023/06/22 05:51:30;;;;;;;28.67;20.55;;;18.90;99.90;;;;;;5046345;28;20111;-71
2023/06/22 05:53:55;;;;;;;33.80;22.63;;;18.80;99.90;;;;;;5045591;28;20022;-71
2023/06/22 05:56:21;;;;;;;32.80;22.20;;;18.80;99.90;;;;;;5045920;28;20033;-70
2023/06/22 05:58:47;;;;;;;31.25;22.02;;;18.80;99.90;;;;;;5045740;28;20048;-71
2023/06/22 06:01:12;;;;;;;35.60;23.15;;;18.80;99.90;;;;;;5045471;28;20456;-71
2023/06/22 06:03:41;;;;;;;35.75;24.48;;;18.80;99.90;;;;;;5045659;28;20029;-70
2023/06/22 06:06:07;;;;;;;37.45;25.20;;;18.80;99.90;;;;;;5045342;28;20102;-71
2023/06/22 06:08:32;;;;;;;36.53;23.23;;;18.70;99.90;;;;;;5046385;28;20040;-70
2023/06/22 06:10:58;;;;;;;36.20;25.92;;;18.70;99.90;;;;;;5046331;28;20041;-72
2023/06/22 06:13:24;;;;;;;37.35;26.38;;;18.70;99.90;;;;;;5045761;28;20029;-71
2023/06/22 06:15:51;;;;;;;36.78;26.35;;;18.70;99.90;;;;;;5045924;28;20037;-72
2023/06/22 06:18:17;;;;;;;37.45;26.23;;;18.70;99.90;;;;;;5046254;28;20464;-71
2023/06/22 06:20:42;;;;;;;44.15;28.15;;;18.70;99.90;;;;;;5046283;28;20053;-69
2023/06/22 06:23:08;;;;;;;44.42;29.25;;;18.80;99.90;;;;;;5045859;28;20045;-71
2023/06/22 06:25:33;;;;;;;40.22;28.48;;;18.80;99.90;;;;;;5028193;28;20096;-71
2023/06/22 06:27:59;;;;;;;46.30;28.77;;;18.80;99.90;;;;;;5027475;28;20025;-70
2023/06/22 06:30:24;;;;;;;39.95;27.08;;;18.90;99.90;;;;;;5045476;28;20026;-70
2023/06/22 06:32:50;;;;;;;43.13;26.60;;;18.90;99.90;;;;;;5027911;28;20036;-70
2023/06/22 06:35:16;;;;;;;43.35;27.58;;;19.00;99.90;;;;;;5045665;28;20033;-71
2023/06/22 06:37:47;;;;;;;43.85;25.30;;;19.20;99.90;;;;;;5040256;28;20046;-70
2023/06/22 06:40:15;;;;;;;38.35;24.30;;;19.20;99.90;;;;;;5036660;28;20041;-69
2023/06/22 06:42:44;;;;;;;38.75;24.75;;;19.30;99.90;;;;;;5043009;28;20064;-70
2023/06/22 06:45:17;;;;;;;35.42;23.67;;;19.30;99.90;;;;;;5044936;28;20037;-72
2023/06/22 06:47:43;;;;;;;30.45;21.42;;;19.40;99.90;;;;;;5036533;28;20057;-70
2023/06/22 06:50:09;;;;;;;35.50;20.63;;;19.50;99.90;;;;;;5044544;28;20486;-69
2023/06/22 06:52:35;;;;;;;27.27;18.45;;;19.50;99.90;;;;;;5044253;28;20036;-71
2023/06/22 06:55:02;;;;;;;32.03;19.92;;;19.70;99.90;;;;;;5043373;28;20033;-72
2023/06/22 06:57:28;;;;;;;29.48;18.83;;;19.70;99.90;;;;;;5032192;28;20052;-72
2023/06/22 06:59:56;;;;;;;24.98;17.83;;;19.80;99.90;;;;;;5025747;28;20045;-70
2023/06/22 07:02:22;;;;;;;27.58;18.63;;;19.80;99.90;;;;;;5026000;28;20025;-70
2023/06/22 07:04:48;;;;;;;27.13;16.85;;;20.00;99.90;;;;;;5043668;28;20040;-72
2023/06/22 07:07:15;;;;;;;29.75;16.17;;;20.00;99.90;;;;;;5044532;28;20436;-70
2023/06/22 07:09:41;;;;;;;21.42;14.90;;;20.10;99.90;;;;;;5043337;28;20061;-71
2023/06/22 07:12:07;;;;;;;17.63;12.95;;;20.20;99.90;;;;;;5042730;28;20055;-71
2023/06/22 07:14:32;;;;;;;19.73;13.15;;;20.30;99.90;;;;;;5041620;28;20037;-70
2023/06/22 07:16:58;;;;;;;23.83;15.70;;;20.40;99.90;;;;;;5043038;28;20362;-71
2023/06/22 07:19:26;;;;;;;21.48;13.77;;;20.50;99.90;;;;;;5044580;28;20477;-72
2023/06/22 07:21:51;;;;;;;22.73;15.40;;;20.60;99.90;;;;;;5044605;28;20025;-70
2023/06/22 07:24:17;;;;;;;22.88;14.13;;;20.70;99.90;;;;;;5044018;28;20034;-71
2023/06/22 07:26:45;;;;;;;19.50;12.98;;;20.70;99.90;;;;;;5044508;28;20083;-72
2023/06/22 07:29:11;;;;;;;17.85;11.35;;;20.80;99.90;;;;;;5044126;28;20758;-71
2023/06/22 07:31:37;;;;;;;16.70;10.90;;;20.90;99.90;;;;;;5030243;28;20091;-72
2023/06/22 07:34:04;;;;;;;19.60;11.18;;;21.00;99.90;;;;;;5043711;28;20029;-70
2023/06/22 07:36:30;;;;;;;18.35;11.43;;;21.00;99.90;;;;;;5027846;28;20029;-70
2023/06/22 07:38:55;;;;;;;18.17;11.75;;;21.20;99.90;;;;;;5043986;28;20056;-69
2023/06/22 07:41:21;;;;;;;16.33;11.60;;;21.30;99.90;;;;;;5044146;28;20096;-72
2023/06/22 07:43:46;;;;;;;21.25;12.48;;;21.30;99.90;;;;;;5044148;28;20108;-71
2023/06/22 07:46:12;;;;;;;16.10;10.70;;;21.50;99.90;;;;;;5042832;28;20045;-71
2023/06/22 07:48:39;;;;;;;15.93;9.73;;;21.60;99.90;;;;;;5038323;28;20037;-72
2023/06/22 07:51:06;;;;;;;17.85;10.30;;;21.70;99.90;;;;;;5042791;28;20036;-71
2023/06/22 07:53:31;;;;;;;15.00;9.38;;;21.70;99.90;;;;;;5043560;28;20017;-71
2023/06/22 07:55:57;;;;;;;19.92;10.95;;;21.80;99.90;;;;;;5041465;28;20037;-71
2023/06/22 07:58:22;;;;;;;16.10;10.68;;;21.90;99.90;;;;;;5043994;28;20478;-72
2023/06/22 08:00:49;;;;;;;14.35;10.05;;;21.90;99.90;;;;;;5041808;28;20085;-73
2023/06/22 08:03:15;;;;;;;15.32;8.60;;;22.00;99.90;;;;;;5033498;28;20143;-71
2023/06/22 08:05:41;;;;;;;17.65;10.20;;;22.10;99.90;;;;;;5042714;28;20045;-71
2023/06/22 08:08:06;;;;;;;15.70;10.02;;;22.20;99.90;;;;;;5043372;28;20037;-70
2023/06/22 08:10:32;;;;;;;11.70;8.00;;;22.30;99.90;;;;;;5034572;28;20030;-70
2023/06/22 08:12:58;;;;;;;13.65;8.80;;;22.30;99.90;;;;;;5041235;28;20033;-71
2023/06/22 08:15:25;;;;;;;11.60;9.00;;;22.40;99.90;;;;;;5033986;28;20026;-70
2023/06/22 08:17:52;;;;;;;11.50;7.70;;;22.50;99.90;;;;;;5044735;28;20033;-73
2023/06/22 08:20:18;;;;;;;11.88;8.05;;;22.50;99.90;;;;;;5054748;28;20033;-72
2023/06/22 08:22:44;;;;;;;8.68;6.63;;;22.60;99.90;;;;;;5049811;28;20041;-72
2023/06/22 08:25:10;;;;;;;9.15;6.32;;;22.70;99.90;;;;;;5034025;28;20121;-71
2023/06/22 08:27:36;;;;;;;12.07;7.47;;;22.80;99.90;;;;;;5043406;28;20029;-71
2023/06/22 08:30:02;;;;;;;12.52;7.60;;;22.80;99.90;;;;;;5046948;28;20024;-72
2023/06/22 08:32:28;;;;;;;9.52;6.78;;;22.90;99.90;;;;;;5047404;28;20029;-70
2023/06/22 08:34:55;;;;;;;9.57;5.90;;;23.00;99.90;;;;;;5048024;28;20029;-71
2023/06/22 08:37:23;;;;;;;9.30;5.78;;;23.10;99.90;;;;;;5047262;28;20049;-72
2023/06/22 08:39:49;;;;;;;9.95;6.70;;;23.20;99.90;;;;;;5047449;28;20048;-71
2023/06/22 08:42:15;;;;;;;10.15;7.55;;;23.40;99.90;;;;;;5047934;28;20029;-72
2023/06/22 08:44:40;;;;;;;11.18;6.28;;;23.50;99.90;;;;;;5047120;28;20029;-71
2023/06/22 08:47:09;;;;;;;10.00;6.57;;;23.50;99.90;;;;;;5034052;28;20057;-72
2023/06/22 08:49:34;;;;;;;10.20;6.43;;;23.70;99.90;;;;;;5044704;28;20124;-72
2023/06/22 08:52:00;;;;;;;10.40;5.72;;;23.70;99.90;;;;;;5038215;28;20045;-71
2023/06/22 08:54:26;;;;;;;8.85;5.63;;;23.70;99.90;;;;;;5042036;28;20029;-73
2023/06/22 08:56:51;;;;;;;9.70;5.18;;;23.80;99.90;;;;;;5047608;28;20033;-71
2023/06/22 08:59:17;;;;;;;7.95;5.40;;;23.80;99.90;;;;;;5044573;28;20030;-71
2023/06/22 09:01:45;;;;;;;11.15;5.85;;;23.90;99.90;;;;;;5036173;28;20044;-72
2023/06/22 09:04:11;;;;;;;9.15;5.90;;;24.00;99.90;;;;;;5037624;28;20033;-73
2023/06/22 09:06:41;;;;;;;9.75;6.10;;;24.00;99.90;;;;;;5039377;28;20216;-70
2023/06/22 09:09:06;;;;;;;9.40;6.90;;;24.10;99.90;;;;;;5015460;28;20037;-73
2023/06/22 09:11:32;;;;;;;10.73;7.03;;;24.20;99.90;;;;;;5041107;28;20042;-72
2023/06/22 09:13:57;;;;;;;9.45;7.28;;;24.40;99.90;;;;;;5030047;28;20473;-71
2023/06/22 09:16:23;;;;;;;9.27;6.03;;;24.50;99.90;;;;;;5046791;28;20036;-72
2023/06/22 09:18:49;;;;;;;11.48;5.70;;;24.60;99.90;;;;;;5030757;28;20037;-72
2023/06/22 09:21:15;;;;;;;10.60;6.32;;;24.80;99.90;;;;;;5046070;28;20029;-72
2023/06/22 09:23:40;;;;;;;9.75;6.10;;;24.80;99.90;;;;;;5045856;28;20017;-70
2023/06/22 09:26:06;;;;;;;11.77;6.68;;;24.80;99.90;;;;;;5042315;28;20061;-74
2023/06/22 09:28:32;;;;;;;12.73;5.95;;;24.80;99.90;;;;;;5035034;28;20028;-71
2023/06/22 09:30:58;;;;;;;10.00;5.10;;;24.90;99.90;;;;;;5037694;28;20053;-71
2023/06/22 09:33:25;;;;;;;9.35;5.88;;;25.00;99.90;;;;;;5044726;28;20025;-72
2023/06/22 09:35:51;;;;;;;6.53;5.00;;;25.00;99.90;;;;;;5046239;28;20030;-71
2023/06/22 09:38:17;;;;;;;7.72;4.60;;;25.00;99.90;;;;;;5045139;28;20046;-74
2023/06/22 09:40:43;;;;;;;14.38;6.80;;;25.00;99.90;;;;;;5046967;28;20038;-71
2023/06/22 09:43:08;;;;;;;8.80;4.80;;;25.10;99.90;;;;;;5045807;28;20451;-72
2023/06/22 09:45:34;;;;;;;12.45;5.95;;;25.10;99.90;;;;;;5045520;28;20022;-74
2023/06/22 09:48:00;;;;;;;6.28;4.55;;;25.20;99.90;;;;;;5045509;28;20025;-71
2023/06/22 09:50:25;;;;;;;6.85;5.07;;;25.30;99.90;;;;;;5044401;28;20060;-73
2023/06/22 09:52:54;;;;;;;10.65;5.43;;;25.30;99.90;;;;;;5045351;28;20093;-71
2023/06/22 09:55:20;;;;;;;8.18;5.30;;;25.40;99.90;;;;;;5045727;28;20053;-74
2023/06/22 09:57:46;;;;;;;9.02;5.18;;;25.50;99.90;;;;;;5028513;28;20474;-71
2023/06/22 10:00:15;;;;;;;8.82;6.18;;;25.50;99.90;;;;;;5027795;28;20042;-73
2023/06/22 10:02:44;;;;;;;8.52;6.30;;;25.50;99.90;;;;;;5045699;28;20029;-71
2023/06/22 10:05:10;;;;;;;9.23;5.20;;;25.60;99.90;;;;;;5039774;28;20057;-73
2023/06/22 10:07:42;;;;;;;7.85;5.28;;;25.60;99.90;;;;;;5014968;28;20057;-71
2023/06/22 10:10:08;;;;;;;11.07;6.45;;;25.70;99.90;;;;;;5030322;28;20088;-72
2023/06/22 10:12:34;;;;;;;9.23;6.70;;;25.80;99.90;;;;;;5032704;28;20374;-71
2023/06/22 10:14:59;;;;;;;10.18;5.88;;;25.90;99.90;;;;;;5045241;28;20087;-72
2023/06/22 10:17:25;;;;;;;10.45;6.22;;;25.90;99.90;;;;;;5043392;28;20551;-71
2023/06/22 10:19:51;;;;;;;12.52;6.78;;;26.00;99.90;;;;;;5026283;28;20038;-69
2023/06/22 10:22:17;;;;;;;11.75;6.97;;;26.10;99.90;;;;;;5027463;28;20384;-72
2023/06/22 10:24:44;;;;;;;10.18;7.03;;;26.20;99.90;;;;;;5046094;28;20022;-72
2023/06/22 10:27:13;;;;;;;8.43;6.30;;;26.30;99.90;;;;;;5029045;28;20029;-73
2023/06/22 10:29:39;;;;;;;10.75;6.13;;;26.30;99.90;;;;;;5031204;28;20041;-72
2023/06/22 10:32:05;;;;;;;11.93;8.15;;;26.40;99.90;;;;;;5044132;28;20059;-72
2023/06/22 10:34:31;;;;;;;10.85;6.90;;;26.50;99.90;;;;;;5027776;28;20033;-70
2023/06/22 10:36:56;;;;;;;11.70;7.20;;;26.50;99.90;;;;;;5045054;28;20405;-68
2023/06/22 10:39:22;;;;;;;12.35;8.52;;;26.70;99.90;;;;;;5044611;28;20108;-69
2023/06/22 10:41:48;;;;;;;13.30;8.77;;;26.70;99.90;;;;;;5027624;28;20029;-69
2023/06/22 10:44:13;;;;;;;9.55;7.60;;;26.80;99.90;;;;;;5042568;28;20432;-70
2023/06/22 10:46:39;;;;;;;10.45;7.95;;;26.90;99.90;;;;;;5044028;28;20034;-70
2023/06/22 10:49:05;;;;;;;9.70;7.43;;;26.90;99.90;;;;;;5008388;28;20120;-68
2023/06/22 10:51:31;;;;;;;9.48;6.32;;;27.00;99.90;;;;;;5038002;28;20087;-69
2023/06/22 10:53:57;;;;;;;9.93;7.43;;;27.10;99.90;;;;;;5021604;28;20033;-67
2023/06/22 10:56:22;;;;;;;9.77;7.28;;;27.20;99.90;;;;;;5043581;28;20040;-69
2023/06/22 10:58:48;;;;;;;13.02;7.35;;;27.30;99.90;;;;;;5045517;28;20033;-69
2023/06/22 11:01:14;;;;;;;10.30;8.52;;;27.50;99.90;;;;;;5043864;28;20029;-69
2023/06/22 11:03:39;;;;;;;12.30;6.90;;;27.50;99.90;;;;;;5026107;28;20057;-70
2023/06/22 11:06:05;;;;;;;8.20;6.97;;;27.50;99.90;;;;;;5044986;28;20088;-70
2023/06/22 11:08:30;;;;;;;11.05;6.97;;;27.50;99.90;;;;;;5027137;28;20120;-71
2023/06/22 11:10:56;;;;;;;11.80;7.63;;;27.50;99.90;;;;;;5044430;28;20033;-71
2023/06/22 11:13:22;;;;;;;8.55;6.40;;;27.50;99.90;;;;;;5044297;28;20030;-72
2023/06/22 11:15:47;;;;;;;10.27;7.32;;;27.50;99.90;;;;;;5044103;28;20025;-73
2023/06/22 11:18:13;;;;;;;11.07;7.05;;;27.40;99.90;;;;;;5043998;28;20034;-72
2023/06/22 11:20:40;;;;;;;9.60;7.18;;;27.40;99.90;;;;;;5041936;28;20021;-70
2023/06/22 11:23:06;;;;;;;12.13;7.82;;;27.40;99.90;;;;;;5042127;28;20034;-69
2023/06/22 11:25:32;;;;;;;12.68;7.22;;;27.40;99.90;;;;;;5042603;28;20064;-68
2023/06/22 11:27:57;;;;;;;11.57;7.50;;;27.40;99.90;;;;;;5032373;28;20029;-69
2023/06/22 11:30:23;;;;;;;11.10;8.60;;;27.40;99.90;;;;;;5031484;28;20025;-69
2023/06/22 11:32:49;;;;;;;10.88;8.32;;;27.50;99.90;;;;;;5039375;28;20041;-70
2023/06/22 11:35:15;;;;;;;8.40;7.53;;;27.60;99.90;;;;;;5044385;28;20044;-69
2023/06/22 11:37:40;;;;;;;9.40;6.50;;;27.70;99.90;;;;;;5043600;28;20064;-70
2023/06/22 11:40:08;;;;;;;10.50;8.57;;;27.90;99.90;;;;;;5044252;28;20101;-73
2023/06/22 11:42:34;;;;;;;9.30;5.57;;;28.00;99.90;;;;;;5044132;28;20031;-71
2023/06/22 11:45:00;;;;;;;10.88;6.90;;;28.10;99.90;;;;;;5044622;28;20065;-69
2023/06/22 11:47:25;;;;;;;8.82;7.10;;;28.30;99.90;;;;;;5044286;28;20034;-70
2023/06/22 11:49:51;;;;;;;8.63;6.45;;;28.50;99.90;;;;;;5036046;28;20037;-71
2023/06/22 11:52:17;;;;;;;9.23;6.38;;;28.50;99.90;;;;;;5032761;28;20029;-70
2023/06/22 11:54:43;;;;;;;7.95;5.70;;;28.40;99.90;;;;;;5037886;28;20030;-73
2023/06/22 11:57:09;;;;;;;9.00;6.65;;;28.30;99.90;;;;;;5043379;28;20048;-72
2023/06/22 11:59:34;;;;;;;9.52;6.40;;;28.30;99.90;;;;;;5044589;28;20048;-69
2023/06/22 12:02:00;;;;;;;8.48;5.90;;;28.30;99.90;;;;;;5038655;28;20094;-69
2023/06/22 12:04:25;;;;;;;8.02;6.40;;;28.50;99.90;;;;;;5030679;28;20022;-70
2023/06/22 12:06:51;;;;;;;8.70;6.90;;;28.60;99.90;;;;;;5034559;28;20037;-70
2023/06/22 12:09:16;;;;;;;8.75;6.00;;;28.60;99.90;;;;;;5040880;28;20668;-69
2023/06/22 12:11:42;;;;;;;9.15;5.65;;;28.40;99.90;;;;;;5043249;28;20026;-70
2023/06/22 12:14:07;;;;;;;8.35;5.85;;;28.30;99.90;;;;;;5041650;28;20397;-69
2023/06/22 12:16:33;;;;;;;8.55;5.85;;;28.30;99.90;;;;;;5042575;28;20021;-70
2023/06/22 12:19:35;;;;;;;;;;;;;;;;;;;;;
2023/06/22 12:22:02;;;;;;;8.23;6.00;;;28.20;99.90;;;;;;5027387;28;20551;-73
2023/06/22 12:24:30;;;;;;;8.18;6.00;;;28.20;99.90;;;;;;5031853;28;20033;-70
2023/06/22 12:26:56;;;;;;;9.70;5.82;;;28.30;99.90;;;;;;5028434;28;20040;-71
2023/06/22 12:29:21;;;;;;;7.78;6.15;;;28.50;99.90;;;;;;5030094;28;20104;-70
2023/06/22 12:31:54;;;;;;;7.72;5.80;;;28.80;99.90;;;;;;5031783;28;20416;-74
2023/06/22 12:34:20;;;;;;;9.32;6.38;;;29.00;99.90;;;;;;5014882;28;20037;-71
2023/06/22 12:37:00;;;;;;;8.13;5.93;;;29.20;99.90;;;;;;5029774;28;20029;-74
2023/06/22 12:39:32;;;;;;;7.47;5.50;;;29.20;99.90;;;;;;5024153;28;20133;-72
2023/06/22 12:41:58;;;;;;;7.78;5.50;;;29.10;99.90;;;;;;5007865;28;20041;-68
2023/06/22 12:44:23;;;;;;;8.85;5.97;;;28.90;99.90;;;;;;5028434;28;20021;-71
2023/06/22 12:46:49;;;;;;;7.40;5.50;;;28.60;99.90;;;;;;5035201;28;20037;-71